sensor_id;sensor_type;location;lat;lon;timestamp;P1;durP1;ratioP1;P2;durP2;ratioP2
43801;SDS011;29429;51.074;13.764;2022-08-03T00:01:34;2.25;;;1.70;;
43801;SDS011;29429;51.074;13.764;2022-08-03T00:04:03;3.00;;;2.00;;
43801;SDS011;29429;51.074;13.764;2022-08-03T00:06:31;3.33;;;2.08;;
43801;SDS011;29429;51.074;13.764;2022-08-03T00:09:05;3.88;;;2.05;;
43801;SDS011;29429;51.074;13.764;2022-08-03T00:11:32;3.35;;;1.85;;
43801;SDS011;29429;51.074;13.764;2022-08-03T00:14:00;3.53;;;1.92;;
43801;SDS011;29429;51.074;13.764;2022-08-03T00:16:27;3.97;;;1.92;;
43801;SDS011;29429;51.074;13.764;2022-08-03T00:18:54;2.92;;;1.92;;
43801;SDS011;29429;51.074;13.764;2022-08-03T00:21:21;2.55;;;1.77;;
43801;SDS011;29429;51.074;13.764;2022-08-03T00:23:48;2.33;;;1.70;;
43801;SDS011;29429;51.074;13.764;2022-08-03T00:26:18;4.57;;;2.53;;
43801;SDS011;29429;51.074;13.764;2022-08-03T00:28:48;3.75;;;2.15;;
43801;SDS011;29429;51.074;13.764;2022-08-03T00:31:16;2.35;;;1.80;;
43801;SDS011;29429;51.074;13.764;2022-08-03T00:34:03;2.60;;;1.80;;
43801;SDS011;29429;51.074;13.764;2022-08-03T00:36:31;2.75;;;1.88;;
43801;SDS011;29429;51.074;13.764;2022-08-03T00:38:58;2.83;;;2.00;;
43801;SDS011;29429;51.074;13.764;2022-08-03T00:41:25;2.92;;;2.22;;
43801;SDS011;29429;51.074;13.764;2022-08-03T00:43:52;2.25;;;1.80;;
43801;SDS011;29429;51.074;13.764;2022-08-03T00:46:19;3.47;;;2.28;;
43801;SDS011;29429;51.074;13.764;2022-08-03T00:48:50;2.55;;;2.17;;
43801;SDS011;29429;51.074;13.764;2022-08-03T00:51:18;3.47;;;2.40;;
43801;SDS011;29429;51.074;13.764;2022-08-03T00:53:47;3.33;;;2.05;;
43801;SDS011;29429;51.074;13.764;2022-08-03T00:56:15;3.28;;;2.70;;
43801;SDS011;29429;51.074;13.764;2022-08-03T00:58:44;5.13;;;2.60;;
43801;SDS011;29429;51.074;13.764;2022-08-03T01:01:12;3.78;;;2.50;;
43801;SDS011;29429;51.074;13.764;2022-08-03T01:03:40;3.83;;;2.47;;
43801;SDS011;29429;51.074;13.764;2022-08-03T01:06:17;4.65;;;2.42;;
43801;SDS011;29429;51.074;13.764;2022-08-03T01:18:38;3.15;;;2.60;;
43801;SDS011;29429;51.074;13.764;2022-08-03T01:21:21;3.47;;;2.72;;
43801;SDS011;29429;51.074;13.764;2022-08-03T01:24:04;3.75;;;2.92;;
43801;SDS011;29429;51.074;13.764;2022-08-03T01:27:12;3.00;;;2.70;;
43801;SDS011;29429;51.074;13.764;2022-08-03T01:29:56;3.65;;;2.85;;
43801;SDS011;29429;51.074;13.764;2022-08-03T01:32:36;5.33;;;3.40;;
43801;SDS011;29429;51.074;13.764;2022-08-03T01:35:31;3.72;;;2.92;;
43801;SDS011;29429;51.074;13.764;2022-08-03T01:38:10;3.87;;;3.07;;
43801;SDS011;29429;51.074;13.764;2022-08-03T01:40:43;3.70;;;2.90;;
43801;SDS011;29429;51.074;13.764;2022-08-03T01:43:15;3.67;;;3.00;;
43801;SDS011;29429;51.074;13.764;2022-08-03T01:46:06;6.20;;;2.92;;
43801;SDS011;29429;51.074;13.764;2022-08-03T01:48:36;3.92;;;3.30;;
43801;SDS011;29429;51.074;13.764;2022-08-03T01:51:05;4.55;;;3.10;;
43801;SDS011;29429;51.074;13.764;2022-08-03T01:53:36;5.70;;;2.92;;
43801;SDS011;29429;51.074;13.764;2022-08-03T01:56:08;5.15;;;3.35;;
43801;SDS011;29429;51.074;13.764;2022-08-03T01:58:37;3.97;;;3.40;;
43801;SDS011;29429;51.074;13.764;2022-08-03T02:01:06;5.10;;;3.70;;
43801;SDS011;29429;51.074;13.764;2022-08-03T02:03:36;4.32;;;3.42;;
43801;SDS011;29429;51.074;13.764;2022-08-03T02:06:27;5.20;;;3.42;;
43801;SDS011;29429;51.074;13.764;2022-08-03T02:09:19;3.95;;;3.50;;
43801;SDS011;29429;51.074;13.764;2022-08-03T02:11:48;3.88;;;3.10;;
43801;SDS011;29429;51.074;13.764;2022-08-03T02:14:18;4.75;;;3.42;;
43801;SDS011;29429;51.074;13.764;2022-08-03T02:16:48;4.20;;;3.45;;
43801;SDS011;29429;51.074;13.764;2022-08-03T02:19:16;4.22;;;3.30;;
43801;SDS011;29429;51.074;13.764;2022-08-03T02:21:45;4.82;;;3.63;;
43801;SDS011;29429;51.074;13.764;2022-08-03T02:24:26;3.65;;;3.10;;
43801;SDS011;29429;51.074;13.764;2022-08-03T02:26:55;4.07;;;3.58;;
43801;SDS011;29429;51.074;13.764;2022-08-03T02:29:24;6.70;;;4.07;;
43801;SDS011;29429;51.074;13.764;2022-08-03T02:32:06;4.65;;;3.72;;
43801;SDS011;29429;51.074;13.764;2022-08-03T02:34:43;7.20;;;3.90;;
43801;SDS011;29429;51.074;13.764;2022-08-03T02:37:17;4.70;;;3.50;;
43801;SDS011;29429;51.074;13.764;2022-08-03T02:39:46;8.27;;;4.05;;
43801;SDS011;29429;51.074;13.764;2022-08-03T02:42:19;7.30;;;4.60;;
43801;SDS011;29429;51.074;13.764;2022-08-03T02:44:49;6.45;;;4.40;;
43801;SDS011;29429;51.074;13.764;2022-08-03T02:47:19;6.15;;;4.50;;
43801;SDS011;29429;51.074;13.764;2022-08-03T02:49:48;7.75;;;4.00;;
43801;SDS011;29429;51.074;13.764;2022-08-03T02:52:19;7.03;;;4.70;;
43801;SDS011;29429;51.074;13.764;2022-08-03T02:54:49;5.68;;;4.28;;
43801;SDS011;29429;51.074;13.764;2022-08-03T02:57:22;5.38;;;4.85;;
43801;SDS011;29429;51.074;13.764;2022-08-03T02:59:53;6.20;;;4.68;;
43801;SDS011;29429;51.074;13.764;2022-08-03T03:02:21;6.15;;;4.93;;
43801;SDS011;29429;51.074;13.764;2022-08-03T03:04:50;6.30;;;5.20;;
43801;SDS011;29429;51.074;13.764;2022-08-03T03:07:40;7.90;;;5.00;;
43801;SDS011;29429;51.074;13.764;2022-08-03T03:10:21;7.15;;;4.82;;
43801;SDS011;29429;51.074;13.764;2022-08-03T03:12:52;6.90;;;4.68;;
43801;SDS011;29429;51.074;13.764;2022-08-03T03:15:23;6.82;;;4.70;;
43801;SDS011;29429;51.074;13.764;2022-08-03T03:17:52;6.05;;;4.80;;
43801;SDS011;29429;51.074;13.764;2022-08-03T03:20:20;7.32;;;5.30;;
43801;SDS011;29429;51.074;13.764;2022-08-03T03:22:57;6.75;;;4.97;;
43801;SDS011;29429;51.074;13.764;2022-08-03T03:25:30;7.15;;;5.07;;
43801;SDS011;29429;51.074;13.764;2022-08-03T03:27:58;5.93;;;4.68;;
43801;SDS011;29429;51.074;13.764;2022-08-03T03:30:27;7.30;;;5.57;;
43801;SDS011;29429;51.074;13.764;2022-08-03T03:32:56;7.38;;;5.32;;
43801;SDS011;29429;51.074;13.764;2022-08-03T03:35:24;9.15;;;5.07;;
43801;SDS011;29429;51.074;13.764;2022-08-03T03:37:53;5.97;;;4.88;;
43801;SDS011;29429;51.074;13.764;2022-08-03T03:40:21;6.22;;;5.20;;
43801;SDS011;29429;51.074;13.764;2022-08-03T03:42:50;9.65;;;5.53;;
43801;SDS011;29429;51.074;13.764;2022-08-03T03:45:17;7.20;;;5.53;;
43801;SDS011;29429;51.074;13.764;2022-08-03T03:47:45;7.38;;;5.40;;
43801;SDS011;29429;51.074;13.764;2022-08-03T03:50:12;8.73;;;5.93;;
43801;SDS011;29429;51.074;13.764;2022-08-03T03:52:43;8.93;;;5.28;;
43801;SDS011;29429;51.074;13.764;2022-08-03T03:55:14;11.98;;;5.78;;
43801;SDS011;29429;51.074;13.764;2022-08-03T03:57:43;8.75;;;5.63;;
43801;SDS011;29429;51.074;13.764;2022-08-03T04:00:11;8.43;;;5.78;;
43801;SDS011;29429;51.074;13.764;2022-08-03T04:02:39;9.90;;;5.70;;
43801;SDS011;29429;51.074;13.764;2022-08-03T04:05:07;9.65;;;6.00;;
43801;SDS011;29429;51.074;13.764;2022-08-03T04:11:01;11.50;;;6.15;;
43801;SDS011;29429;51.074;13.764;2022-08-03T04:14:00;9.05;;;6.15;;
43801;SDS011;29429;51.074;13.764;2022-08-03T04:16:39;9.50;;;6.38;;
43801;SDS011;29429;51.074;13.764;2022-08-03T04:22:13;9.95;;;5.85;;
43801;SDS011;29429;51.074;13.764;2022-08-03T04:24:47;16.23;;;6.97;;
43801;SDS011;29429;51.074;13.764;2022-08-03T04:27:22;11.05;;;7.07;;
43801;SDS011;29429;51.074;13.764;2022-08-03T04:29:54;11.88;;;6.65;;
43801;SDS011;29429;51.074;13.764;2022-08-03T04:32:22;11.77;;;6.80;;
43801;SDS011;29429;51.074;13.764;2022-08-03T04:34:53;9.00;;;6.50;;
43801;SDS011;29429;51.074;13.764;2022-08-03T04:40:13;11.40;;;7.10;;
43801;SDS011;29429;51.074;13.764;2022-08-03T04:42:55;10.63;;;6.63;;
43801;SDS011;29429;51.074;13.764;2022-08-03T04:45:24;8.52;;;7.20;;
43801;SDS011;29429;51.074;13.764;2022-08-03T04:47:53;9.07;;;6.30;;
43801;SDS011;29429;51.074;13.764;2022-08-03T04:50:21;8.68;;;5.95;;
43801;SDS011;29429;51.074;13.764;2022-08-03T04:53:04;9.25;;;6.72;;
43801;SDS011;29429;51.074;13.764;2022-08-03T04:55:32;8.63;;;6.93;;
43801;SDS011;29429;51.074;13.764;2022-08-03T04:58:01;7.60;;;6.22;;
43801;SDS011;29429;51.074;13.764;2022-08-03T05:00:30;8.07;;;6.80;;
43801;SDS011;29429;51.074;13.764;2022-08-03T05:02:57;7.25;;;6.38;;
43801;SDS011;29429;51.074;13.764;2022-08-03T05:05:24;8.50;;;6.20;;
43801;SDS011;29429;51.074;13.764;2022-08-03T05:08:11;9.52;;;6.72;;
43801;SDS011;29429;51.074;13.764;2022-08-03T05:10:38;10.25;;;6.28;;
43801;SDS011;29429;51.074;13.764;2022-08-03T05:13:06;6.65;;;5.65;;
43801;SDS011;29429;51.074;13.764;2022-08-03T05:15:37;11.05;;;7.18;;
43801;SDS011;29429;51.074;13.764;2022-08-03T05:18:08;8.98;;;6.35;;
43801;SDS011;29429;51.074;13.764;2022-08-03T05:20:39;8.73;;;6.35;;
43801;SDS011;29429;51.074;13.764;2022-08-03T05:23:06;11.13;;;7.10;;
43801;SDS011;29429;51.074;13.764;2022-08-03T05:25:34;6.93;;;5.85;;
43801;SDS011;29429;51.074;13.764;2022-08-03T05:28:00;8.82;;;6.28;;
43801;SDS011;29429;51.074;13.764;2022-08-03T05:30:27;9.35;;;6.10;;
43801;SDS011;29429;51.074;13.764;2022-08-03T05:32:59;10.05;;;5.65;;
43801;SDS011;29429;51.074;13.764;2022-08-03T05:35:28;9.80;;;6.38;;
43801;SDS011;29429;51.074;13.764;2022-08-03T05:38:17;7.88;;;5.63;;
43801;SDS011;29429;51.074;13.764;2022-08-03T05:40:53;6.60;;;5.85;;
43801;SDS011;29429;51.074;13.764;2022-08-03T05:43:23;10.90;;;5.50;;
43801;SDS011;29429;51.074;13.764;2022-08-03T05:45:50;7.53;;;5.40;;
43801;SDS011;29429;51.074;13.764;2022-08-03T05:48:36;8.05;;;5.90;;
43801;SDS011;29429;51.074;13.764;2022-08-03T05:51:03;6.85;;;5.18;;
43801;SDS011;29429;51.074;13.764;2022-08-03T05:53:32;7.97;;;4.70;;
43801;SDS011;29429;51.074;13.764;2022-08-03T05:56:00;6.47;;;4.80;;
43801;SDS011;29429;51.074;13.764;2022-08-03T05:58:40;7.55;;;5.28;;
43801;SDS011;29429;51.074;13.764;2022-08-03T06:01:08;5.85;;;4.95;;
43801;SDS011;29429;51.074;13.764;2022-08-03T06:03:35;5.38;;;4.88;;
43801;SDS011;29429;51.074;13.764;2022-08-03T06:06:02;9.32;;;5.00;;
43801;SDS011;29429;51.074;13.764;2022-08-03T06:08:29;8.02;;;4.90;;
43801;SDS011;29429;51.074;13.764;2022-08-03T06:10:56;5.10;;;4.60;;
43801;SDS011;29429;51.074;13.764;2022-08-03T06:13:23;5.20;;;4.22;;
43801;SDS011;29429;51.074;13.764;2022-08-03T06:15:50;7.43;;;4.80;;
43801;SDS011;29429;51.074;13.764;2022-08-03T06:18:17;5.13;;;3.92;;
43801;SDS011;29429;51.074;13.764;2022-08-03T06:20:45;4.70;;;3.95;;
43801;SDS011;29429;51.074;13.764;2022-08-03T06:23:15;5.38;;;3.92;;
43801;SDS011;29429;51.074;13.764;2022-08-03T06:25:43;6.63;;;3.80;;
43801;SDS011;29429;51.074;13.764;2022-08-03T06:28:11;5.88;;;4.10;;
43801;SDS011;29429;51.074;13.764;2022-08-03T06:31:03;4.63;;;3.80;;
43801;SDS011;29429;51.074;13.764;2022-08-03T06:33:32;5.05;;;4.03;;
43801;SDS011;29429;51.074;13.764;2022-08-03T06:36:18;4.45;;;3.97;;
43801;SDS011;29429;51.074;13.764;2022-08-03T06:38:46;5.68;;;3.97;;
43801;SDS011;29429;51.074;13.764;2022-08-03T06:41:13;4.38;;;3.75;;
43801;SDS011;29429;51.074;13.764;2022-08-03T06:43:40;4.68;;;3.40;;
43801;SDS011;29429;51.074;13.764;2022-08-03T06:46:27;4.00;;;3.22;;
43801;SDS011;29429;51.074;13.764;2022-08-03T06:48:54;4.47;;;3.42;;
43801;SDS011;29429;51.074;13.764;2022-08-03T06:51:21;4.93;;;3.35;;
43801;SDS011;29429;51.074;13.764;2022-08-03T06:54:08;4.82;;;3.13;;
43801;SDS011;29429;51.074;13.764;2022-08-03T06:56:36;4.85;;;3.33;;
43801;SDS011;29429;51.074;13.764;2022-08-03T06:59:03;3.05;;;2.75;;
43801;SDS011;29429;51.074;13.764;2022-08-03T07:01:30;4.88;;;3.55;;
43801;SDS011;29429;51.074;13.764;2022-08-03T07:03:57;3.45;;;2.85;;
43801;SDS011;29429;51.074;13.764;2022-08-03T07:06:25;4.28;;;3.10;;
43801;SDS011;29429;51.074;13.764;2022-08-03T07:08:52;4.13;;;3.40;;
43801;SDS011;29429;51.074;13.764;2022-08-03T07:11:24;3.55;;;2.53;;
43801;SDS011;29429;51.074;13.764;2022-08-03T07:13:53;3.30;;;2.85;;
43801;SDS011;29429;51.074;13.764;2022-08-03T07:16:21;3.75;;;2.92;;
43801;SDS011;29429;51.074;13.764;2022-08-03T07:18:48;4.28;;;2.72;;
43801;SDS011;29429;51.074;13.764;2022-08-03T07:21:15;3.40;;;2.80;;
43801;SDS011;29429;51.074;13.764;2022-08-03T07:23:42;2.50;;;2.30;;
43801;SDS011;29429;51.074;13.764;2022-08-03T07:26:09;2.90;;;2.35;;
43801;SDS011;29429;51.074;13.764;2022-08-03T07:28:36;4.28;;;2.35;;
43801;SDS011;29429;51.074;13.764;2022-08-03T07:31:03;3.00;;;2.40;;
43801;SDS011;29429;51.074;13.764;2022-08-03T07:33:30;3.10;;;2.10;;
43801;SDS011;29429;51.074;13.764;2022-08-03T07:35:57;5.47;;;2.50;;
43801;SDS011;29429;51.074;13.764;2022-08-03T07:38:24;3.65;;;2.40;;
43801;SDS011;29429;51.074;13.764;2022-08-03T07:40:52;2.40;;;2.15;;
43801;SDS011;29429;51.074;13.764;2022-08-03T07:43:19;2.25;;;2.00;;
43801;SDS011;29429;51.074;13.764;2022-08-03T07:45:46;2.85;;;2.30;;
43801;SDS011;29429;51.074;13.764;2022-08-03T07:48:13;2.20;;;2.00;;
43801;SDS011;29429;51.074;13.764;2022-08-03T07:50:40;2.65;;;2.17;;
43801;SDS011;29429;51.074;13.764;2022-08-03T07:53:07;4.57;;;2.20;;
43801;SDS011;29429;51.074;13.764;2022-08-03T07:55:33;2.45;;;2.25;;
43801;SDS011;29429;51.074;13.764;2022-08-03T08:00:49;2.65;;;2.20;;
43801;SDS011;29429;51.074;13.764;2022-08-03T08:03:18;2.17;;;1.90;;
43801;SDS011;29429;51.074;13.764;2022-08-03T08:05:47;3.45;;;2.10;;
43801;SDS011;29429;51.074;13.764;2022-08-03T08:08:14;3.67;;;2.30;;
43801;SDS011;29429;51.074;13.764;2022-08-03T08:10:41;3.97;;;2.08;;
43801;SDS011;29429;51.074;13.764;2022-08-03T08:13:23;2.25;;;1.98;;
43801;SDS011;29429;51.074;13.764;2022-08-03T08:15:50;2.50;;;1.90;;
43801;SDS011;29429;51.074;13.764;2022-08-03T08:18:17;3.58;;;2.10;;
43801;SDS011;29429;51.074;13.764;2022-08-03T08:20:44;2.65;;;2.30;;
43801;SDS011;29429;51.074;13.764;2022-08-03T08:23:11;2.63;;;1.70;;
43801;SDS011;29429;51.074;13.764;2022-08-03T08:25:58;2.97;;;1.67;;
43801;SDS011;29429;51.074;13.764;2022-08-03T08:28:25;2.42;;;1.70;;
43801;SDS011;29429;51.074;13.764;2022-08-03T08:33:27;2.25;;;1.77;;
43801;SDS011;29429;51.074;13.764;2022-08-03T08:36:14;2.42;;;1.77;;
43801;SDS011;29429;51.074;13.764;2022-08-03T08:38:43;1.95;;;1.70;;
43801;SDS011;29429;51.074;13.764;2022-08-03T08:41:11;2.53;;;1.73;;
43801;SDS011;29429;51.074;13.764;2022-08-03T08:43:40;3.67;;;1.88;;
43801;SDS011;29429;51.074;13.764;2022-08-03T08:46:11;1.98;;;1.77;;
43801;SDS011;29429;51.074;13.764;2022-08-03T08:48:49;3.67;;;1.95;;
43801;SDS011;29429;51.074;13.764;2022-08-03T08:51:20;2.72;;;2.00;;
43801;SDS011;29429;51.074;13.764;2022-08-03T08:54:09;2.15;;;1.67;;
43801;SDS011;29429;51.074;13.764;2022-08-03T08:56:37;2.78;;;1.80;;
43801;SDS011;29429;51.074;13.764;2022-08-03T08:59:04;2.97;;;2.15;;
43801;SDS011;29429;51.074;13.764;2022-08-03T09:01:32;3.50;;;1.70;;
43801;SDS011;29429;51.074;13.764;2022-08-03T09:03:59;2.15;;;1.95;;
43801;SDS011;29429;51.074;13.764;2022-08-03T09:06:26;3.20;;;1.80;;
43801;SDS011;29429;51.074;13.764;2022-08-03T09:08:53;3.65;;;1.92;;
43801;SDS011;29429;51.074;13.764;2022-08-03T09:11:21;3.17;;;1.90;;
43801;SDS011;29429;51.074;13.764;2022-08-03T09:14:12;2.38;;;1.70;;
43801;SDS011;29429;51.074;13.764;2022-08-03T09:17:00;3.63;;;1.55;;
43801;SDS011;29429;51.074;13.764;2022-08-03T09:20:03;1.65;;;1.55;;
43801;SDS011;29429;51.074;13.764;2022-08-03T09:22:35;2.30;;;1.60;;
43801;SDS011;29429;51.074;13.764;2022-08-03T09:27:53;1.90;;;1.70;;
43801;SDS011;29429;51.074;13.764;2022-08-03T09:30:27;1.40;;;1.30;;
43801;SDS011;29429;51.074;13.764;2022-08-03T09:33:03;1.73;;;1.52;;
43801;SDS011;29429;51.074;13.764;2022-08-03T09:35:39;1.85;;;1.70;;
43801;SDS011;29429;51.074;13.764;2022-08-03T09:38:23;2.58;;;1.48;;
43801;SDS011;29429;51.074;13.764;2022-08-03T09:40:54;3.13;;;2.10;;
43801;SDS011;29429;51.074;13.764;2022-08-03T09:43:26;2.35;;;1.60;;
43801;SDS011;29429;51.074;13.764;2022-08-03T09:46:03;2.25;;;1.60;;
43801;SDS011;29429;51.074;13.764;2022-08-03T09:48:32;1.80;;;1.50;;
43801;SDS011;29429;51.074;13.764;2022-08-03T09:51:03;2.42;;;1.65;;
43801;SDS011;29429;51.074;13.764;2022-08-03T09:53:50;4.45;;;2.00;;
43801;SDS011;29429;51.074;13.764;2022-08-03T09:56:36;3.63;;;1.60;;
43801;SDS011;29429;51.074;13.764;2022-08-03T09:59:08;2.03;;;1.52;;
43801;SDS011;29429;51.074;13.764;2022-08-03T10:01:48;2.28;;;1.70;;
43801;SDS011;29429;51.074;13.764;2022-08-03T10:04:15;1.90;;;1.65;;
43801;SDS011;29429;51.074;13.764;2022-08-03T10:07:00;2.05;;;1.60;;
43801;SDS011;29429;51.074;13.764;2022-08-03T10:09:35;1.35;;;1.25;;
43801;SDS011;29429;51.074;13.764;2022-08-03T10:12:06;1.60;;;1.45;;
43801;SDS011;29429;51.074;13.764;2022-08-03T10:14:39;2.55;;;1.33;;
43801;SDS011;29429;51.074;13.764;2022-08-03T10:17:10;5.70;;;2.00;;
43801;SDS011;29429;51.074;13.764;2022-08-03T10:19:37;3.17;;;1.67;;
43801;SDS011;29429;51.074;13.764;2022-08-03T10:22:13;2.50;;;1.58;;
43801;SDS011;29429;51.074;13.764;2022-08-03T10:24:47;4.00;;;1.42;;
43801;SDS011;29429;51.074;13.764;2022-08-03T10:27:39;1.63;;;1.45;;
43801;SDS011;29429;51.074;13.764;2022-08-03T10:30:11;2.58;;;1.50;;
43801;SDS011;29429;51.074;13.764;2022-08-03T10:32:43;2.78;;;1.30;;
43801;SDS011;29429;51.074;13.764;2022-08-03T10:35:20;2.40;;;1.73;;
43801;SDS011;29429;51.074;13.764;2022-08-03T10:37:57;3.95;;;1.60;;
43801;SDS011;29429;51.074;13.764;2022-08-03T10:40:28;3.08;;;1.70;;
43801;SDS011;29429;51.074;13.764;2022-08-03T10:43:20;1.80;;;1.70;;
43801;SDS011;29429;51.074;13.764;2022-08-03T10:45:52;2.13;;;1.55;;
43801;SDS011;29429;51.074;13.764;2022-08-03T10:48:21;2.40;;;1.67;;
43801;SDS011;29429;51.074;13.764;2022-08-03T10:50:48;2.47;;;1.90;;
43801;SDS011;29429;51.074;13.764;2022-08-03T10:53:16;1.80;;;1.70;;
43801;SDS011;29429;51.074;13.764;2022-08-03T10:56:04;2.13;;;1.67;;
43801;SDS011;29429;51.074;13.764;2022-08-03T10:59:10;2.90;;;1.88;;
43801;SDS011;29429;51.074;13.764;2022-08-03T11:01:53;1.70;;;1.60;;
43801;SDS011;29429;51.074;13.764;2022-08-03T11:04:24;3.10;;;1.65;;
43801;SDS011;29429;51.074;13.764;2022-08-03T11:09:42;2.00;;;1.42;;
43801;SDS011;29429;51.074;13.764;2022-08-03T11:15:06;1.92;;;1.60;;
43801;SDS011;29429;51.074;13.764;2022-08-03T11:17:34;1.85;;;1.70;;
43801;SDS011;29429;51.074;13.764;2022-08-03T11:20:42;2.40;;;1.70;;
43801;SDS011;29429;51.074;13.764;2022-08-03T11:26:31;1.67;;;1.48;;
43801;SDS011;29429;51.074;13.764;2022-08-03T11:29:25;4.35;;;1.77;;
43801;SDS011;29429;51.074;13.764;2022-08-03T11:31:56;3.53;;;1.50;;
43801;SDS011;29429;51.074;13.764;2022-08-03T11:34:24;2.10;;;1.75;;
43801;SDS011;29429;51.074;13.764;2022-08-03T11:39:56;1.65;;;1.55;;
43801;SDS011;29429;51.074;13.764;2022-08-03T11:44:52;2.03;;;1.52;;
43801;SDS011;29429;51.074;13.764;2022-08-03T11:47:26;5.20;;;1.65;;
43801;SDS011;29429;51.074;13.764;2022-08-03T11:49:57;4.10;;;1.75;;
43801;SDS011;29429;51.074;13.764;2022-08-03T11:52:37;2.03;;;1.70;;
43801;SDS011;29429;51.074;13.764;2022-08-03T11:55:08;2.47;;;1.77;;
43801;SDS011;29429;51.074;13.764;2022-08-03T11:57:37;2.95;;;1.90;;
43801;SDS011;29429;51.074;13.764;2022-08-03T12:00:28;1.77;;;1.65;;
43801;SDS011;29429;51.074;13.764;2022-08-03T12:05:34;2.80;;;2.00;;
43801;SDS011;29429;51.074;13.764;2022-08-03T12:08:30;1.63;;;1.52;;
43801;SDS011;29429;51.074;13.764;2022-08-03T12:11:04;2.80;;;1.60;;
43801;SDS011;29429;51.074;13.764;2022-08-03T12:16:32;2.05;;;1.60;;
43801;SDS011;29429;51.074;13.764;2022-08-03T12:19:00;2.40;;;1.40;;
43801;SDS011;29429;51.074;13.764;2022-08-03T12:21:30;2.92;;;1.58;;
43801;SDS011;29429;51.074;13.764;2022-08-03T12:24:01;3.13;;;1.65;;
43801;SDS011;29429;51.074;13.764;2022-08-03T12:26:41;1.55;;;1.40;;
43801;SDS011;29429;51.074;13.764;2022-08-03T12:31:55;2.47;;;1.70;;
43801;SDS011;29429;51.074;13.764;2022-08-03T12:34:22;1.90;;;1.50;;
43801;SDS011;29429;51.074;13.764;2022-08-03T12:36:49;2.40;;;1.40;;
43801;SDS011;29429;51.074;13.764;2022-08-03T12:39:22;3.95;;;1.50;;
43801;SDS011;29429;51.074;13.764;2022-08-03T12:41:56;1.67;;;1.48;;
43801;SDS011;29429;51.074;13.764;2022-08-03T12:44:33;2.42;;;1.70;;
43801;SDS011;29429;51.074;13.764;2022-08-03T12:47:02;1.48;;;1.38;;
43801;SDS011;29429;51.074;13.764;2022-08-03T12:50:05;4.15;;;1.30;;
43801;SDS011;29429;51.074;13.764;2022-08-03T12:52:25;1.70;;;1.60;;
43801;SDS011;29429;51.074;13.764;2022-08-03T12:55:08;1.65;;;1.35;;
43801;SDS011;29429;51.074;13.764;2022-08-03T12:57:47;3.22;;;1.90;;
43801;SDS011;29429;51.074;13.764;2022-08-03T13:00:15;3.45;;;1.40;;
43801;SDS011;29429;51.074;13.764;2022-08-03T13:03:01;2.10;;;1.20;;
43801;SDS011;29429;51.074;13.764;2022-08-03T13:05:52;2.35;;;1.40;;
43801;SDS011;29429;51.074;13.764;2022-08-03T13:08:20;2.38;;;1.88;;
43801;SDS011;29429;51.074;13.764;2022-08-03T13:10:50;1.50;;;1.40;;
43801;SDS011;29429;51.074;13.764;2022-08-03T13:13:17;2.58;;;1.60;;
43801;SDS011;29429;51.074;13.764;2022-08-03T13:16:03;2.17;;;1.30;;
43801;SDS011;29429;51.074;13.764;2022-08-03T13:18:30;2.88;;;1.30;;
43801;SDS011;29429;51.074;13.764;2022-08-03T13:20:59;6.60;;;1.70;;
43801;SDS011;29429;51.074;13.764;2022-08-03T13:23:26;2.33;;;1.60;;
43801;SDS011;29429;51.074;13.764;2022-08-03T13:25:53;2.75;;;1.48;;
43801;SDS011;29429;51.074;13.764;2022-08-03T13:28:21;1.75;;;1.50;;
43801;SDS011;29429;51.074;13.764;2022-08-03T13:30:48;1.77;;;1.45;;
43801;SDS011;29429;51.074;13.764;2022-08-03T13:33:16;3.92;;;1.63;;
43801;SDS011;29429;51.074;13.764;2022-08-03T13:35:43;1.95;;;1.50;;
43801;SDS011;29429;51.074;13.764;2022-08-03T13:38:10;1.55;;;1.42;;
43801;SDS011;29429;51.074;13.764;2022-08-03T13:40:37;3.92;;;1.50;;
43801;SDS011;29429;51.074;13.764;2022-08-03T13:43:07;3.35;;;1.58;;
43801;SDS011;29429;51.074;13.764;2022-08-03T13:45:34;1.58;;;1.48;;
43801;SDS011;29429;51.074;13.764;2022-08-03T13:48:01;2.35;;;1.50;;
43801;SDS011;29429;51.074;13.764;2022-08-03T13:50:28;2.72;;;1.50;;
43801;SDS011;29429;51.074;13.764;2022-08-03T13:52:56;1.77;;;1.50;;
43801;SDS011;29429;51.074;13.764;2022-08-03T13:55:24;2.80;;;1.40;;
43801;SDS011;29429;51.074;13.764;2022-08-03T13:57:51;1.83;;;1.30;;
43801;SDS011;29429;51.074;13.764;2022-08-03T14:00:30;1.85;;;1.30;;
43801;SDS011;29429;51.074;13.764;2022-08-03T14:02:58;1.83;;;1.42;;
43801;SDS011;29429;51.074;13.764;2022-08-03T14:05:39;2.83;;;1.30;;
43801;SDS011;29429;51.074;13.764;2022-08-03T14:08:08;2.88;;;1.42;;
43801;SDS011;29429;51.074;13.764;2022-08-03T14:10:39;1.67;;;1.50;;
43801;SDS011;29429;51.074;13.764;2022-08-03T14:13:09;3.25;;;1.50;;
43801;SDS011;29429;51.074;13.764;2022-08-03T14:15:43;1.50;;;1.25;;
43801;SDS011;29429;51.074;13.764;2022-08-03T14:18:17;1.83;;;1.50;;
43801;SDS011;29429;51.074;13.764;2022-08-03T14:20:59;2.72;;;1.92;;
43801;SDS011;29429;51.074;13.764;2022-08-03T14:23:33;1.55;;;1.17;;
43801;SDS011;29429;51.074;13.764;2022-08-03T14:26:04;1.85;;;1.60;;
43801;SDS011;29429;51.074;13.764;2022-08-03T14:28:34;2.05;;;1.30;;
43801;SDS011;29429;51.074;13.764;2022-08-03T14:31:02;4.30;;;1.60;;
43801;SDS011;29429;51.074;13.764;2022-08-03T14:33:33;3.80;;;1.10;;
43801;SDS011;29429;51.074;13.764;2022-08-03T14:36:00;3.05;;;1.60;;
43801;SDS011;29429;51.074;13.764;2022-08-03T14:38:28;1.65;;;1.45;;
43801;SDS011;29429;51.074;13.764;2022-08-03T14:40:55;3.53;;;1.40;;
43801;SDS011;29429;51.074;13.764;2022-08-03T14:43:22;2.78;;;1.50;;
43801;SDS011;29429;51.074;13.764;2022-08-03T14:45:50;1.80;;;1.40;;
43801;SDS011;29429;51.074;13.764;2022-08-03T14:48:19;3.50;;;1.50;;
43801;SDS011;29429;51.074;13.764;2022-08-03T14:51:08;2.33;;;1.50;;
43801;SDS011;29429;51.074;13.764;2022-08-03T14:53:35;2.53;;;1.20;;
43801;SDS011;29429;51.074;13.764;2022-08-03T14:56:02;2.35;;;1.20;;
43801;SDS011;29429;51.074;13.764;2022-08-03T14:58:35;2.53;;;1.43;;
43801;SDS011;29429;51.074;13.764;2022-08-03T15:01:03;1.40;;;1.30;;
43801;SDS011;29429;51.074;13.764;2022-08-03T15:03:50;2.08;;;1.33;;
43801;SDS011;29429;51.074;13.764;2022-08-03T15:06:17;2.45;;;1.20;;
43801;SDS011;29429;51.074;13.764;2022-08-03T15:08:44;2.35;;;1.50;;
43801;SDS011;29429;51.074;13.764;2022-08-03T15:11:37;2.33;;;1.52;;
43801;SDS011;29429;51.074;13.764;2022-08-03T15:14:05;1.40;;;1.30;;
43801;SDS011;29429;51.074;13.764;2022-08-03T15:16:35;1.50;;;1.40;;
43801;SDS011;29429;51.074;13.764;2022-08-03T15:19:03;2.55;;;1.35;;
43801;SDS011;29429;51.074;13.764;2022-08-03T15:21:51;2.47;;;1.50;;
43801;SDS011;29429;51.074;13.764;2022-08-03T15:24:18;3.25;;;1.30;;
43801;SDS011;29429;51.074;13.764;2022-08-03T15:26:46;2.42;;;1.20;;
43801;SDS011;29429;51.074;13.764;2022-08-03T15:29:13;1.80;;;1.48;;
43801;SDS011;29429;51.074;13.764;2022-08-03T15:32:00;1.75;;;1.17;;
43801;SDS011;29429;51.074;13.764;2022-08-03T15:34:32;2.22;;;1.40;;
43801;SDS011;29429;51.074;13.764;2022-08-03T15:36:59;1.92;;;1.40;;
43801;SDS011;29429;51.074;13.764;2022-08-03T15:39:26;2.90;;;1.40;;
43801;SDS011;29429;51.074;13.764;2022-08-03T15:41:53;2.35;;;1.40;;
43801;SDS011;29429;51.074;13.764;2022-08-03T15:44:21;1.42;;;1.33;;
43801;SDS011;29429;51.074;13.764;2022-08-03T15:46:48;1.83;;;1.30;;
43801;SDS011;29429;51.074;13.764;2022-08-03T15:49:19;1.90;;;1.50;;
43801;SDS011;29429;51.074;13.764;2022-08-03T15:51:46;2.53;;;1.23;;
43801;SDS011;29429;51.074;13.764;2022-08-03T15:54:13;2.38;;;1.48;;